Arches National Park, UT

1:46 AM MDT on October 25, 2014 (GMT -0600)
Canon Vista | Change Station
CLOSE
Current Station
Personal Weather Station
Location: Moab, UT
Elevation: 4183 ft
Nearby Weather Stations

Elev 4183 ft 38.56 °N, 109.53 °W | Updated 7 seconds ago

Clear
Clear
50.2 °F
Feels Like 50.2 °F
N
0.0
Wind Variable Wind from SE
Gusts 0.0 mph

Today
High -- | Low -- °F
--% Chance of Precip.
Yesterday
High -- | Low -- °F
Precip. -- in
7:37 AM 6:26 PM
New Moon, 2% visible
Pressure 30.09 in
Visibility 10.0 miles
Clouds Clear
Dew Point 36 °F
Humidity 58%
Rainfall 0.00 in
Snow Depth Not available.
UV 0 out of 12
Pollen 1.80 out of 12
Air Quality Not available.
Flu Activity Sporadic
METAR KCNY 250653Z AUTO 00000KT 10SM CLR 12/01 A3020 RMK AO2 SLP188 T01220006 402560067

More Conditions Fewer Conditions

Pressure 30.09 in
Visibility 10.0 miles
Clouds Clear
Dew Point 36 °F
Humidity 58%
Rainfall 0.00 in
Snow Depth Not available.
UV 0 out of 12
Pollen 1.80 out of 12
Air Quality Not available.
Flu Activity Sporadic
METAR KCNY 250653Z AUTO 00000KT 10SM CLR 12/01 A3020 RMK AO2 SLP188 T01220006 402560067

More Conditions Fewer Conditions

10-Day Weather Forecast

Almanac

Astronomy

Oct. 25, 2014 Rise Set
Actual Time 7:37 AM MDT 6:26 PM MDT
Civil Twilight 7:10 AM MDT 6:53 PM MDT
Nautical Twilight 6:39 AM MDT 7:24 PM MDT
Astronomical Twilight 6:08 AM MDT 7:55 PM MDT
Moon 9:18 AM MDT 7:52 PM MDT
Length of Visible Light 11h 43m
Length of Day
10h 48m
Tomorrow will be 2m 18s shorter.
New Moon, 2% of the Moon is Illuminated
Today
New Moon
Oct 30
First Quarter
Nov 6
Full
Nov 14
Last Quarter
Nov 22
New

Today's Extremes

State Highs State Lows

Community

WunderPhotos

Upload Photos

1,764,791 photos uploaded!

Nearby

Snow Depth

Station Depth Elevation
Lasal Mountain 0 in 9850 ft
Camp Jackson 0 in 8600 ft
Black Flat-U.M. Creek 0 in 9400 ft
Red Pine Ridge 0 in 9200 ft
Seeley Creek 0 in 10000 ft

Earthquake Activity

City Distance Mag. Time & Date
Ferron, Utah 108 miles 2.5 10:53 PM MDT
2014-10-21
Minimum magnitude displayed is 2.5.

Coastal Water Temperatures

Place Temperature
No Stations Reporting

Nearby Weather Stations